Terminal Aerodrome Forecast
Issued by NWS

Home | Current Version | Previous Version | Graphics & Text | Print | Product List | Glossary Off
Versions: 1 2 3 4 5 6 7 8 9 10 11 12 13 14 15 16 17 18 19 20 21 22 23 24

000
FTUS43 KBIS 290528
TAFDIK
TAF
KDIK 290528Z 2906/3006 36016G22KT P6SM BKN070
     FM290800 36015G21KT P6SM OVC020
     FM291700 36010KT P6SM BKN060
     FM300300 10007KT P6SM FEW080=

USA.gov is the U.S. government's official web portal to all federal, state and local government web resources and services.